createdAt,value
2018-03-03T00:01:12.875Z,74.83
2018-03-03T00:03:38.605Z,74.80
2018-03-03T00:06:04.352Z,74.44
2018-03-03T00:08:30.086Z,74.77
2018-03-03T00:10:55.840Z,74.53
2018-03-03T00:13:21.579Z,74.44
2018-03-03T00:15:47.319Z,74.39
2018-03-03T00:18:13.060Z,74.13
2018-03-03T00:20:38.826Z,73.90
2018-03-03T00:23:04.561Z,73.72
2018-03-03T00:25:30.328Z,73.70
2018-03-03T00:27:56.066Z,73.83
2018-03-03T00:30:21.811Z,73.56
2018-03-03T00:32:47.560Z,73.25
2018-03-03T00:35:13.315Z,73.44
2018-03-03T00:37:39.059Z,73.68
2018-03-03T00:40:04.812Z,73.47
2018-03-03T00:42:30.549Z,73.34
2018-03-03T00:44:56.287Z,73.03
2018-03-03T00:47:22.034Z,72.88
2018-03-03T00:49:47.762Z,73.20
2018-03-03T00:52:13.528Z,73.36
2018-03-03T00:54:39.253Z,73.61
2018-03-03T00:57:05.008Z,73.70
2018-03-03T00:59:30.756Z,73.85
2018-03-03T01:01:56.506Z,73.73
2018-03-03T01:04:22.253Z,73.74
2018-03-03T01:06:48.003Z,73.79
2018-03-03T01:09:13.743Z,73.60
2018-03-03T01:11:39.503Z,73.84
2018-03-03T01:14:05.259Z,73.92
2018-03-03T01:16:31.010Z,73.85
2018-03-03T01:18:56.770Z,74.19
2018-03-03T01:21:22.517Z,73.90
2018-03-03T01:23:48.271Z,74.23
2018-03-03T01:26:14.025Z,74.31
2018-03-03T01:28:39.766Z,74.69
2018-03-03T01:31:05.527Z,74.59
2018-03-03T01:33:31.266Z,74.39
2018-03-03T01:35:57.029Z,74.22
2018-03-03T01:38:22.770Z,74.60
2018-03-03T01:40:48.522Z,74.46
2018-03-03T01:43:14.474Z,74.88
2018-03-03T01:45:40.217Z,74.27
2018-03-03T01:48:05.962Z,74.28
2018-03-03T01:50:31.694Z,74.09
2018-03-03T01:52:57.446Z,73.99
2018-03-03T01:55:23.182Z,73.84
2018-03-03T01:57:48.927Z,73.38
2018-03-03T02:00:14.657Z,72.74
2018-03-03T02:02:40.412Z,71.77
2018-03-03T02:05:06.153Z,72.51
2018-03-03T02:07:31.901Z,71.93
2018-03-03T02:09:57.639Z,71.75
2018-03-03T02:12:23.390Z,71.72
2018-03-03T02:14:49.126Z,72.23
2018-03-03T02:17:14.865Z,72.37
2018-03-03T02:19:40.606Z,72.32
2018-03-03T02:22:06.334Z,72.12
2018-03-03T02:24:32.062Z,72.16
2018-03-03T02:26:57.807Z,72.02
2018-03-03T02:29:23.556Z,71.86
2018-03-03T02:31:56.410Z,71.64
2018-03-03T02:34:22.190Z,71.54
2018-03-03T02:36:47.930Z,71.76
2018-03-03T02:39:13.671Z,71.23
2018-03-03T02:41:39.411Z,71.17
2018-03-03T02:44:05.163Z,71.22
2018-03-03T02:46:30.901Z,70.81
2018-03-03T02:48:56.664Z,70.88
2018-03-03T02:51:22.444Z,70.53
2018-03-03T02:53:48.204Z,70.61
2018-03-03T02:56:13.943Z,70.52
2018-03-03T02:58:39.706Z,70.34
2018-03-03T03:01:05.451Z,70.63
2018-03-03T03:03:31.194Z,70.08
2018-03-03T03:05:56.954Z,70.51
2018-03-03T03:08:22.697Z,70.39
2018-03-03T03:10:48.445Z,69.95
2018-03-03T03:13:14.222Z,69.68
2018-03-03T03:15:40.130Z,69.96
2018-03-03T03:18:05.852Z,69.77
2018-03-03T03:20:31.597Z,69.84
2018-03-03T03:22:57.351Z,69.67
2018-03-03T03:25:23.088Z,69.56
2018-03-03T03:27:48.829Z,69.52
2018-03-03T03:30:14.574Z,69.12
2018-03-03T03:32:40.328Z,69.27
2018-03-03T03:35:06.093Z,69.22
2018-03-03T03:37:31.823Z,69.09
2018-03-03T03:39:57.562Z,69.15
2018-03-03T03:42:23.303Z,69.53
2018-03-03T03:44:49.047Z,68.97
2018-03-03T03:47:14.779Z,69.13
2018-03-03T03:49:40.598Z,69.40
2018-03-03T03:52:06.334Z,69.36
2018-03-03T03:54:32.081Z,69.36
2018-03-03T03:56:57.814Z,69.19
2018-03-03T03:59:23.675Z,69.60
2018-03-03T04:01:49.393Z,69.58
2018-03-03T04:04:15.167Z,69.32
2018-03-03T04:06:40.878Z,69.50
2018-03-03T04:09:06.618Z,69.43
2018-03-03T04:11:32.390Z,69.67
2018-03-03T04:13:58.122Z,69.80
2018-03-03T04:16:23.871Z,69.69
2018-03-03T04:18:49.613Z,69.89
2018-03-03T04:21:15.370Z,70.17
2018-03-03T04:23:41.114Z,70.14
2018-03-03T04:26:06.874Z,70.50
2018-03-03T04:28:32.621Z,70.90
2018-03-03T04:30:59.025Z,71.26
2018-03-03T04:33:25.189Z,71.44
2018-03-03T04:35:50.994Z,71.63
2018-03-03T04:38:16.729Z,71.76
2018-03-03T04:40:42.484Z,71.88
2018-03-03T04:43:08.225Z,71.93
2018-03-03T04:45:33.965Z,72.07
2018-03-03T04:47:59.712Z,72.28
2018-03-03T04:50:25.462Z,72.18
2018-03-03T04:52:51.202Z,72.50
2018-03-03T04:55:16.966Z,72.65
2018-03-03T04:57:42.721Z,73.06
2018-03-03T05:00:09.370Z,73.16
2018-03-03T05:05:45.794Z,73.18
2018-03-03T05:08:11.534Z,73.43
2018-03-03T05:10:38.238Z,73.37
2018-03-03T05:16:10.774Z,73.74
2018-03-03T05:18:42.564Z,73.79
2018-03-03T05:21:10.144Z,73.79
2018-03-03T05:23:41.999Z,73.89
2018-03-03T05:26:13.824Z,73.94
2018-03-03T05:28:45.631Z,74.24
2018-03-03T05:31:17.457Z,74.43
2018-03-03T05:36:44.675Z,74.61
2018-03-03T05:39:16.486Z,74.88
2018-03-03T05:44:51.090Z,75.11
2018-03-03T05:47:22.934Z,75.09
2018-03-03T05:49:54.766Z,74.94
2018-03-03T05:55:26.779Z,74.61
2018-03-03T06:01:14.991Z,74.00
2018-03-03T06:07:04.959Z,74.51
2018-03-03T06:09:30.714Z,74.22
2018-03-03T06:11:56.469Z,73.86
2018-03-03T06:14:22.215Z,73.65
2018-03-03T06:16:47.955Z,73.15
2018-03-03T06:19:13.706Z,73.18
2018-03-03T06:21:39.437Z,73.20
2018-03-03T06:24:05.198Z,72.64
2018-03-03T06:26:30.929Z,72.35
2018-03-03T06:28:56.673Z,72.17
2018-03-03T06:31:22.405Z,72.07
2018-03-03T06:33:48.150Z,72.36
2018-03-03T06:36:13.882Z,71.96
2018-03-03T06:38:39.628Z,71.52
2018-03-03T06:41:05.351Z,71.64
2018-03-03T06:43:31.082Z,71.40
2018-03-03T06:45:56.818Z,70.96
2018-03-03T06:48:22.561Z,71.32
2018-03-03T06:50:48.293Z,71.39
2018-03-03T06:53:14.037Z,70.44
2018-03-03T06:55:39.770Z,70.34
2018-03-03T06:58:05.502Z,70.08
2018-03-03T07:00:31.253Z,69.66
2018-03-03T07:02:56.992Z,69.53
2018-03-03T07:05:22.747Z,69.01
2018-03-03T07:07:48.494Z,68.52
2018-03-03T07:10:14.244Z,68.52
2018-03-03T07:12:39.978Z,68.48
2018-03-03T07:15:13.749Z,68.02
2018-03-03T07:17:39.490Z,67.71
2018-03-03T07:20:05.237Z,67.10
2018-03-03T07:22:30.987Z,66.67
2018-03-03T07:24:56.722Z,66.50
2018-03-03T07:27:22.445Z,66.26
2018-03-03T07:29:48.185Z,65.76
2018-03-03T07:32:13.922Z,65.30
2018-03-03T07:34:39.683Z,64.30
2018-03-03T07:37:05.427Z,64.07
2018-03-03T07:39:31.194Z,64.14
2018-03-03T07:41:56.921Z,63.94
2018-03-03T07:44:22.701Z,63.32
2018-03-03T07:46:48.443Z,62.64
2018-03-03T07:49:14.205Z,62.42
2018-03-03T07:51:39.946Z,61.89
2018-03-03T07:54:05.687Z,62.02
2018-03-03T07:56:43.887Z,61.54
2018-03-03T07:59:09.627Z,60.98
2018-03-03T08:01:35.394Z,60.58
2018-03-03T08:04:01.128Z,60.05
2018-03-03T08:06:26.879Z,59.90
2018-03-03T08:08:52.624Z,59.48
2018-03-03T08:11:18.374Z,59.27
2018-03-03T08:13:44.119Z,59.13
2018-03-03T08:16:09.877Z,58.61
2018-03-03T08:18:35.619Z,58.93
2018-03-03T08:21:01.382Z,58.11
2018-03-03T08:23:27.119Z,57.44
2018-03-03T08:25:52.885Z,58.17
2018-03-03T08:28:18.634Z,57.60
2018-03-03T08:30:44.379Z,56.33
2018-03-03T08:33:10.118Z,56.88
2018-03-03T08:35:35.875Z,56.84
2018-03-03T08:38:01.632Z,56.90
2018-03-03T08:40:27.383Z,57.22
2018-03-03T08:42:53.125Z,56.55
2018-03-03T08:45:18.870Z,56.68
2018-03-03T08:47:44.605Z,56.38
2018-03-03T08:50:10.341Z,55.42
2018-03-03T08:52:36.107Z,55.98
2018-03-03T08:55:01.847Z,56.93
2018-03-03T08:57:27.589Z,55.91
2018-03-03T08:59:53.353Z,56.00
2018-03-03T09:02:19.103Z,55.80
2018-03-03T09:04:44.859Z,56.35
2018-03-03T09:07:10.617Z,56.02
2018-03-03T09:09:36.359Z,56.38
2018-03-03T09:12:02.114Z,55.98
2018-03-03T09:14:27.859Z,55.34
2018-03-03T09:16:53.602Z,55.91
2018-03-03T09:19:19.340Z,55.78
2018-03-03T09:21:45.090Z,56.29
2018-03-03T09:24:10.814Z,55.86
2018-03-03T09:26:36.576Z,55.82
2018-03-03T09:29:02.311Z,55.57
2018-03-03T09:31:28.042Z,55.52
2018-03-03T09:33:53.782Z,54.72
2018-03-03T09:36:19.518Z,54.48
2018-03-03T09:38:45.264Z,54.19
2018-03-03T09:41:11.035Z,54.39
2018-03-03T09:43:36.809Z,54.13
2018-03-03T09:46:02.558Z,53.93
2018-03-03T09:48:28.322Z,53.60
2018-03-03T09:50:54.069Z,53.27
2018-03-03T09:53:19.837Z,52.02
2018-03-03T09:55:45.582Z,52.36
2018-03-03T09:58:11.339Z,51.74
2018-03-03T10:00:37.090Z,51.94
2018-03-03T10:03:02.869Z,51.54
2018-03-03T10:05:28.612Z,52.15
2018-03-03T10:07:54.341Z,51.67
2018-03-03T10:10:20.094Z,52.15
2018-03-03T10:12:45.847Z,51.59
2018-03-03T10:15:11.588Z,51.96
2018-03-03T10:17:37.343Z,52.04
2018-03-03T10:20:03.093Z,51.62
2018-03-03T10:22:28.852Z,52.23
2018-03-03T10:24:54.585Z,52.20
2018-03-03T10:27:20.353Z,51.82
2018-03-03T10:29:46.099Z,50.84
2018-03-03T10:32:11.852Z,51.21
2018-03-03T10:34:37.638Z,50.56
2018-03-03T10:37:03.370Z,50.75
2018-03-03T10:39:29.131Z,50.94
2018-03-03T10:41:54.886Z,50.73
2018-03-03T10:44:20.638Z,50.95
2018-03-03T10:46:46.390Z,51.74
2018-03-03T10:49:12.143Z,51.41
2018-03-03T10:51:37.913Z,51.56
2018-03-03T10:54:03.662Z,51.27
2018-03-03T10:56:29.408Z,51.15
2018-03-03T10:58:55.146Z,50.81
2018-03-03T11:01:20.894Z,51.26
2018-03-03T11:03:46.639Z,51.07
2018-03-03T11:06:12.375Z,51.14
2018-03-03T11:08:38.155Z,51.09
2018-03-03T11:11:03.911Z,51.69
2018-03-03T11:13:29.651Z,50.70
2018-03-03T11:15:55.422Z,50.60
2018-03-03T11:18:21.157Z,50.70
2018-03-03T11:20:46.928Z,51.68
2018-03-03T11:23:12.666Z,50.68
2018-03-03T11:25:38.430Z,50.61
2018-03-03T11:28:04.187Z,52.34
2018-03-03T11:30:29.938Z,51.26
2018-03-03T11:32:55.697Z,51.28
2018-03-03T11:35:21.458Z,51.01
2018-03-03T11:37:47.208Z,51.55
2018-03-03T11:40:12.962Z,50.92
2018-03-03T11:42:38.714Z,51.78
2018-03-03T11:45:04.489Z,50.85
2018-03-03T11:47:30.230Z,50.16
2018-03-03T11:49:55.984Z,50.77
2018-03-03T11:52:21.777Z,51.07
2018-03-03T11:54:47.514Z,52.01
2018-03-03T11:57:13.261Z,51.82
2018-03-03T11:59:38.994Z,50.63
2018-03-03T12:02:04.749Z,51.09
2018-03-03T12:04:30.702Z,50.38
2018-03-03T12:06:56.579Z,51.18
2018-03-03T12:09:22.374Z,51.33
2018-03-03T12:11:48.138Z,51.01
2018-03-03T12:14:13.890Z,50.15
2018-03-03T12:16:39.651Z,50.46
2018-03-03T12:19:05.396Z,52.00
2018-03-03T12:21:31.181Z,50.80
2018-03-03T12:23:56.892Z,50.92
2018-03-03T12:26:22.914Z,51.80
2018-03-03T12:28:48.659Z,51.53
2018-03-03T12:31:14.417Z,50.76
2018-03-03T12:33:40.176Z,51.50
2018-03-03T12:36:05.922Z,51.69
2018-03-03T12:38:31.686Z,50.21
2018-03-03T12:40:57.524Z,51.89
2018-03-03T12:43:23.278Z,51.35
2018-03-03T12:45:49.039Z,51.25
2018-03-03T12:48:15.314Z,50.88
2018-03-03T12:50:41.059Z,50.91
2018-03-03T12:53:06.810Z,50.42
2018-03-03T12:55:32.545Z,51.50
2018-03-03T12:57:58.460Z,51.17
2018-03-03T13:00:24.205Z,50.90
2018-03-03T13:02:49.950Z,51.01
2018-03-03T13:05:15.705Z,51.97
2018-03-03T13:07:41.459Z,51.34
2018-03-03T13:10:07.218Z,51.09
2018-03-03T13:12:32.964Z,51.16
2018-03-03T13:14:58.726Z,51.07
2018-03-03T13:17:24.471Z,51.44
2018-03-03T13:19:50.213Z,51.10
2018-03-03T13:22:15.962Z,50.89
2018-03-03T13:24:41.710Z,50.99
2018-03-03T13:27:07.454Z,51.87
2018-03-03T13:29:33.235Z,52.17
2018-03-03T13:31:58.974Z,52.05
2018-03-03T13:34:24.738Z,52.53
2018-03-03T13:36:50.487Z,52.74
2018-03-03T13:39:16.247Z,52.69
2018-03-03T13:41:42.000Z,53.86
2018-03-03T13:44:07.751Z,54.29
2018-03-03T13:46:33.504Z,53.64
2018-03-03T13:48:59.387Z,54.12
2018-03-03T13:51:25.127Z,54.14
2018-03-03T13:53:50.891Z,54.75
2018-03-03T13:56:16.687Z,54.50
2018-03-03T13:58:42.398Z,53.55
2018-03-03T14:01:08.170Z,54.08
2018-03-03T14:03:34.122Z,53.43
2018-03-03T14:05:59.914Z,54.00
2018-03-03T14:08:25.669Z,54.07
2018-03-03T14:10:51.431Z,54.22
2018-03-03T14:13:17.253Z,54.90
2018-03-03T14:15:43.011Z,54.40
2018-03-03T14:18:08.899Z,54.84
2018-03-03T14:20:34.659Z,54.84
2018-03-03T14:23:00.438Z,54.19
2018-03-03T14:25:26.193Z,54.36
2018-03-03T14:27:52.062Z,54.75
2018-03-03T14:30:17.914Z,54.87
2018-03-03T14:32:43.854Z,55.51
2018-03-03T14:35:09.634Z,55.37
2018-03-03T14:37:35.403Z,56.21
2018-03-03T14:40:01.155Z,56.31
2018-03-03T14:42:26.948Z,56.31
2018-03-03T14:44:52.706Z,56.07
2018-03-03T14:47:18.465Z,56.20
2018-03-03T14:49:44.227Z,56.27
2018-03-03T14:52:09.995Z,55.85
2018-03-03T14:54:35.746Z,55.66
2018-03-03T14:57:01.540Z,55.65
2018-03-03T14:59:27.278Z,55.82
2018-03-03T15:01:53.049Z,55.94
2018-03-03T15:04:18.795Z,56.71
2018-03-03T15:06:44.559Z,56.12
2018-03-03T15:09:10.322Z,56.04
2018-03-03T15:11:36.160Z,55.66
2018-03-03T15:14:01.930Z,55.66
2018-03-03T15:16:27.695Z,56.22
2018-03-03T15:18:53.469Z,56.57
2018-03-03T15:21:19.215Z,56.72
2018-03-03T15:23:44.979Z,56.75
2018-03-03T15:26:10.747Z,56.84
2018-03-03T15:28:36.514Z,57.48
2018-03-03T15:31:02.278Z,57.35
2018-03-03T15:33:28.045Z,57.17
2018-03-03T15:35:53.790Z,57.46
2018-03-03T15:38:19.549Z,57.69
2018-03-03T15:40:45.306Z,58.21
2018-03-03T15:43:11.077Z,58.03
2018-03-03T15:45:36.827Z,58.42
2018-03-03T15:48:02.593Z,58.67
2018-03-03T15:50:28.350Z,58.97
2018-03-03T15:52:54.089Z,58.24
2018-03-03T15:55:19.831Z,59.04
2018-03-03T15:57:45.594Z,58.70
2018-03-03T16:00:11.331Z,58.73
2018-03-03T16:02:37.065Z,59.04
2018-03-03T16:05:02.826Z,58.94
2018-03-03T16:07:28.563Z,59.00
2018-03-03T16:09:55.349Z,59.08
2018-03-03T16:12:21.244Z,59.28
2018-03-03T16:14:46.972Z,59.83
2018-03-03T16:17:12.759Z,59.80
2018-03-03T16:19:38.465Z,60.34
2018-03-03T16:22:04.209Z,60.27
2018-03-03T16:24:29.947Z,60.82
2018-03-03T16:26:55.686Z,60.45
2018-03-03T16:29:21.423Z,60.42
2018-03-03T16:31:47.176Z,60.95
2018-03-03T16:34:12.922Z,60.73
2018-03-03T16:36:38.670Z,60.92
2018-03-03T16:39:04.491Z,61.32
2018-03-03T16:41:30.177Z,61.20
2018-03-03T16:43:55.927Z,61.66
2018-03-03T16:46:21.668Z,61.63
2018-03-03T16:48:47.418Z,61.52
2018-03-03T16:51:13.174Z,61.47
2018-03-03T16:53:38.910Z,61.55
2018-03-03T16:56:04.670Z,61.93
2018-03-03T16:58:30.415Z,61.96
2018-03-03T17:00:56.180Z,61.94
2018-03-03T17:03:21.913Z,62.03
2018-03-03T17:05:47.653Z,61.87
2018-03-03T17:08:13.483Z,62.84
2018-03-03T17:10:39.256Z,62.40
2018-03-03T17:13:04.999Z,62.50
2018-03-03T17:15:30.766Z,62.79
2018-03-03T17:17:56.511Z,62.95
2018-03-03T17:20:22.284Z,62.94
2018-03-03T17:22:48.038Z,63.07
2018-03-03T17:25:13.768Z,63.18
2018-03-03T17:27:39.573Z,63.54
2018-03-03T17:30:05.287Z,63.66
2018-03-03T17:32:31.060Z,64.18
2018-03-03T17:34:56.808Z,64.16
2018-03-03T17:37:22.594Z,64.53
2018-03-03T17:39:48.313Z,64.51
2018-03-03T17:42:14.059Z,64.55
2018-03-03T17:44:39.814Z,64.88
2018-03-03T17:47:05.559Z,65.11
2018-03-03T17:49:31.313Z,65.39
2018-03-03T17:51:57.071Z,65.38
2018-03-03T17:54:22.816Z,65.32
2018-03-03T17:56:48.559Z,65.54
2018-03-03T17:59:14.326Z,65.70
2018-03-03T18:01:40.079Z,65.14
2018-03-03T18:04:05.849Z,64.87
2018-03-03T18:06:31.597Z,65.91
2018-03-03T18:08:57.370Z,65.38
2018-03-03T18:11:23.156Z,65.01
2018-03-03T18:13:56.819Z,65.18
2018-03-03T18:16:23.155Z,65.22
2018-03-03T18:18:49.506Z,64.95
2018-03-03T18:21:15.308Z,65.12
2018-03-03T18:23:41.092Z,65.41
2018-03-03T18:26:06.889Z,65.30
2018-03-03T18:28:32.653Z,65.39
2018-03-03T18:30:58.543Z,65.22
2018-03-03T18:33:24.330Z,65.32
2018-03-03T18:35:50.081Z,65.27
2018-03-03T18:38:15.841Z,65.79
2018-03-03T18:40:41.587Z,65.74
2018-03-03T18:43:07.334Z,65.85
2018-03-03T18:45:33.097Z,65.64
2018-03-03T18:47:58.841Z,65.99
2018-03-03T18:50:24.649Z,66.10
2018-03-03T18:52:50.350Z,66.08
2018-03-03T18:55:16.106Z,65.95
2018-03-03T18:57:41.858Z,66.21
2018-03-03T19:00:07.647Z,65.99
2018-03-03T19:02:33.403Z,66.20
2018-03-03T19:04:59.161Z,66.17
2018-03-03T19:07:24.929Z,66.45
2018-03-03T19:09:50.674Z,66.48
2018-03-03T19:12:16.425Z,66.75
2018-03-03T19:14:42.179Z,66.43
2018-03-03T19:17:07.947Z,66.47
2018-03-03T19:19:33.708Z,66.90
2018-03-03T19:21:59.453Z,67.02
2018-03-03T19:24:25.203Z,66.34
2018-03-03T19:26:50.946Z,66.45
2018-03-03T19:29:16.681Z,66.68
2018-03-03T19:31:42.439Z,67.31
2018-03-03T19:34:08.175Z,67.52
2018-03-03T19:36:33.931Z,67.46
2018-03-03T19:38:59.654Z,67.38
2018-03-03T19:41:25.406Z,67.50
2018-03-03T19:43:51.133Z,67.17
2018-03-03T19:46:16.882Z,67.44
2018-03-03T19:48:42.626Z,67.18
2018-03-03T19:51:08.378Z,67.22
2018-03-03T19:53:34.164Z,67.10
2018-03-03T19:55:59.885Z,66.97
2018-03-03T19:58:25.645Z,66.89
2018-03-03T20:03:23.895Z,66.68
2018-03-03T20:05:49.650Z,66.63
2018-03-03T20:08:15.406Z,66.81
2018-03-03T20:10:41.190Z,66.89
2018-03-03T20:13:06.956Z,66.97
2018-03-03T20:15:32.696Z,66.91
2018-03-03T20:17:58.443Z,67.09
2018-03-03T20:20:24.189Z,66.84
2018-03-03T20:22:49.938Z,66.90
2018-03-03T20:25:15.693Z,67.46
2018-03-03T20:27:41.450Z,67.25
2018-03-03T20:30:07.192Z,67.47
2018-03-03T20:32:32.953Z,67.26
2018-03-03T20:34:58.695Z,67.49
2018-03-03T20:37:24.452Z,67.60
2018-03-03T20:39:50.202Z,67.75
2018-03-03T20:42:15.954Z,67.56
2018-03-03T20:44:41.698Z,67.58
2018-03-03T20:47:07.453Z,67.79
2018-03-03T20:49:33.202Z,67.88
2018-03-03T20:51:58.966Z,67.97
2018-03-03T20:54:24.721Z,67.77
2018-03-03T20:56:50.479Z,67.98
2018-03-03T20:59:16.220Z,68.30
2018-03-03T21:01:41.961Z,68.43
2018-03-03T21:04:07.716Z,68.61
2018-03-03T21:06:33.451Z,68.88
2018-03-03T21:08:59.204Z,68.40
2018-03-03T21:11:26.753Z,68.52
2018-03-03T21:13:52.534Z,68.50
2018-03-03T21:16:18.278Z,68.77
2018-03-03T21:18:44.030Z,69.09
2018-03-03T21:21:09.778Z,69.40
2018-03-03T21:23:35.539Z,68.98
2018-03-03T21:26:01.295Z,69.04
2018-03-03T21:28:27.049Z,69.02
2018-03-03T21:30:52.816Z,69.50
2018-03-03T21:33:18.587Z,69.75
2018-03-03T21:35:44.370Z,69.55
2018-03-03T21:38:10.125Z,69.82
2018-03-03T21:40:35.865Z,69.84
2018-03-03T21:43:01.622Z,69.84
2018-03-03T21:45:27.376Z,69.79
2018-03-03T21:47:53.122Z,70.36
2018-03-03T21:50:18.870Z,70.17
2018-03-03T21:52:44.626Z,70.36
2018-03-03T21:55:10.388Z,70.42
2018-03-03T21:57:36.156Z,70.21
2018-03-03T22:00:01.920Z,70.44
2018-03-03T22:02:27.677Z,70.68
2018-03-03T22:04:53.454Z,70.59
2018-03-03T22:07:19.186Z,70.63
2018-03-03T22:09:44.942Z,70.65
2018-03-03T22:12:10.920Z,70.50
2018-03-03T22:14:36.673Z,70.81
2018-03-03T22:17:02.397Z,70.98
2018-03-03T22:19:28.146Z,70.85
2018-03-03T22:21:53.890Z,70.94
2018-03-03T22:24:19.646Z,70.93
2018-03-03T22:26:52.392Z,71.13
2018-03-03T22:29:18.135Z,71.05
2018-03-03T22:31:43.870Z,71.04
2018-03-03T22:34:09.616Z,71.32
2018-03-03T22:36:35.354Z,71.09
2018-03-03T22:39:01.114Z,71.16
2018-03-03T22:41:26.878Z,72.78
2018-03-03T22:43:52.618Z,71.61
2018-03-03T22:46:18.370Z,70.82
2018-03-03T22:48:44.105Z,71.30
2018-03-03T22:51:09.851Z,70.89
2018-03-03T22:53:35.590Z,70.77
2018-03-03T22:56:01.330Z,70.82
2018-03-03T22:58:27.071Z,71.08
2018-03-03T23:00:53.147Z,71.74
2018-03-03T23:03:18.889Z,70.76
2018-03-03T23:05:44.639Z,70.84
2018-03-03T23:08:10.386Z,70.96
2018-03-03T23:10:36.137Z,71.08
2018-03-03T23:13:01.865Z,70.85
2018-03-03T23:15:27.627Z,71.13
2018-03-03T23:17:53.361Z,71.19
2018-03-03T23:20:19.116Z,71.40
2018-03-03T23:22:44.855Z,71.32
2018-03-03T23:25:10.609Z,71.61
2018-03-03T23:27:36.351Z,71.47
2018-03-03T23:30:02.119Z,71.45
2018-03-03T23:32:27.858Z,71.56
2018-03-03T23:34:53.602Z,71.29
2018-03-03T23:37:19.338Z,71.01
2018-03-03T23:39:45.072Z,71.29
2018-03-03T23:42:10.834Z,71.04
2018-03-03T23:44:36.566Z,71.07
2018-03-03T23:47:02.314Z,71.03
2018-03-03T23:49:28.054Z,71.04
2018-03-03T23:51:53.800Z,71.23
2018-03-03T23:54:19.550Z,71.59
2018-03-03T23:56:45.294Z,71.35
2018-03-03T23:59:11.032Z,71.38
